Time;durP1;ratioP1;P1;durP2;ratioP2;P2;SDS_P1;SDS_P2;PMS_P1;PMS_P2;Temp;Humidity;BMP_temperature;BMP_pressure;BME280_temperature;BME280_humidity;BME280_pressure;Samples;Min_cycle;Max_cycle;Signal;HPM_P1;HPM_P2
2023/01/29 00:04:43;;;;;;;6.80;6.10;;;;;;;-1.61;76.57;100803.85;210788;1298;140537;-61
2023/01/29 00:09:46;;;;;;;10.10;6.40;;;;;;;-1.57;76.46;100806.52;210179;1285;139660;-64
2023/01/29 00:14:48;;;;;;;7.10;5.00;;;;;;;-1.57;76.67;100800.36;212695;1300;139635;-64
2023/01/29 00:19:51;;;;;;;9.30;5.80;;;;;;;-1.56;76.64;100796.51;210660;1297;139168;-61
2023/01/29 00:24:53;;;;;;;8.40;6.00;;;;;;;-1.56;76.66;100787.37;212847;1300;139879;-67
2023/01/29 00:30:15;;;;;;;5.50;4.90;;;;;;;-1.57;76.49;100785.21;212871;1297;139791;-66
2023/01/29 00:35:19;;;;;;;5.20;4.60;;;;;;;-1.50;76.28;100778.52;212763;1290;140279;-65
2023/01/29 00:40:24;;;;;;;7.20;4.30;;;;;;;-1.46;76.22;100767.48;213035;1300;141038;-65
2023/01/29 00:45:27;;;;;;;5.40;4.10;;;;;;;-1.43;76.51;100760.79;211893;1299;139529;-64
2023/01/29 00:50:31;;;;;;;7.60;4.00;;;;;;;-1.44;76.24;100754.30;211014;1291;139826;-63
2023/01/29 00:55:34;;;;;;;9.30;5.60;;;;;;;-1.44;76.22;100753.42;211285;1297;139640;-63
2023/01/29 01:00:37;;;;;;;5.50;3.70;;;;;;;-1.44;76.32;100756.16;210461;1298;141536;-64
2023/01/29 01:05:41;;;;;;;10.10;4.50;;;;;;;-1.45;76.28;100745.05;211449;1299;140224;-63
2023/01/29 01:10:45;;;;;;;4.70;4.20;;;;;;;-1.42;76.39;100738.55;211434;1291;139418;-63
2023/01/29 01:15:49;;;;;;;4.20;2.70;;;;;;;-1.43;76.49;100730.77;210881;1298;139639;-63
2023/01/29 01:20:58;;;;;;;8.30;5.30;;;;;;;-1.46;76.51;100725.12;210485;1293;141366;-62
2023/01/29 01:26:08;;;;;;;7.60;4.60;;;;;;;-1.47;76.19;100707.29;209965;1299;140117;-61
2023/01/29 01:31:13;;;;;;;8.90;6.20;;;;;;;-1.51;76.39;100711.42;212809;1299;139773;-63
2023/01/29 01:36:17;;;;;;;9.50;5.80;;;;;;;-1.52;76.44;100718.23;211669;1283;139179;-62
2023/01/29 01:41:21;;;;;;;9.50;6.90;;;;;;;-1.51;76.40;100720.18;210591;1291;141543;-64
2023/01/29 01:46:27;;;;;;;14.30;7.90;;;;;;;-1.44;76.59;100706.85;210494;1298;139976;-62
2023/01/29 01:51:33;;;;;;;12.00;9.10;;;;;;;-1.44;76.61;100700.77;210797;1290;140320;-64
2023/01/29 01:56:44;;;;;;;17.50;9.00;;;;;;;-1.46;76.79;100706.67;210169;1284;140663;-65
2023/01/29 02:01:53;;;;;;;12.70;8.00;;;;;;;-1.48;76.99;100707.19;210758;1298;140042;-65
2023/01/29 02:12:20;;;;;;;16.80;9.30;;;;;;;-1.50;76.79;100717.29;212182;1291;140403;-64
2023/01/29 02:17:23;;;;;;;16.10;9.50;;;;;;;-1.45;76.93;100724.21;212849;1300;140851;-63
2023/01/29 02:22:54;;;;;;;10.20;7.20;;;;;;;-1.42;76.72;100724.84;212945;1290;139069;-65
2023/01/29 02:28:24;;;;;;;6.20;4.40;;;;;;;-1.43;76.81;100723.64;212098;1283;141515;-66
2023/01/29 02:33:47;;;;;;;8.20;6.80;;;;;;;-1.39;76.54;100726.49;210158;1298;139733;-67
2023/01/29 02:39:28;;;;;;;9.50;7.80;;;;;;;-1.46;76.52;100721.27;211051;1291;139191;-65
2023/01/29 02:44:51;;;;;;;13.20;7.60;;;;;;;-1.52;76.60;100716.94;212176;1304;141671;-63
2023/01/29 02:50:04;;;;;;;10.70;7.60;;;;;;;-1.54;76.52;100706.54;210527;1293;140536;-63
2023/01/29 02:55:17;;;;;;;12.60;7.50;;;;;;;-1.53;76.58;100698.35;210523;1298;140894;-64
2023/01/29 03:00:25;;;;;;;14.20;8.20;;;;;;;-1.53;76.60;100700.80;211040;1297;142125;-66
2023/01/29 03:05:32;;;;;;;;;;;;;;;-1.56;76.66;100689.23;210652;1291;139199;-64
2023/01/29 03:11:01;;;;;;;5.60;4.20;;;;;;;-1.61;76.90;100677.90;211159;1298;126192;-63
2023/01/29 03:16:34;;;;;;;14.90;9.20;;;;;;;-1.66;76.72;100682.63;210863;1291;139656;-64
2023/01/29 03:21:50;;;;;;;12.00;7.20;;;;;;;-1.64;76.97;100677.05;210640;1297;139822;-64
2023/01/29 03:32:21;;;;;;;12.10;8.80;;;;;;;-1.68;76.89;100683.67;210283;1291;139903;-63
2023/01/29 03:37:35;;;;;;;13.70;7.10;;;;;;;-1.70;76.94;100674.77;210082;1298;140080;-66
2023/01/29 03:42:45;;;;;;;11.30;7.40;;;;;;;-1.68;76.86;100665.07;211546;1291;141252;-64
2023/01/29 03:48:16;;;;;;;14.90;8.90;;;;;;;-1.66;77.06;100664.14;210372;1297;140590;-61
2023/01/29 03:53:42;;;;;;;11.10;8.30;;;;;;;-1.66;77.15;100663.02;211184;1302;139710;-63
2023/01/29 03:58:50;;;;;;;11.80;7.90;;;;;;;-1.63;77.13;100661.48;211742;1297;140253;-64
2023/01/29 04:04:11;;;;;;;12.60;9.90;;;;;;;-1.62;77.09;100649.71;211839;1291;140738;-65
2023/01/29 04:09:23;;;;;;;13.40;9.20;;;;;;;-1.57;76.83;100650.83;211869;1300;140271;-64
2023/01/29 04:14:27;;;;;;;14.30;7.80;;;;;;;-1.58;76.61;100637.84;212963;1300;139767;-64
2023/01/29 04:19:29;;;;;;;10.50;8.00;;;;;;;-1.58;76.92;100651.12;212240;1284;140484;-64
2023/01/29 04:24:32;;;;;;;6.60;4.50;;;;;;;-1.59;76.81;100650.48;211596;1290;140059;-65
2023/01/29 04:29:58;;;;;;;11.50;7.30;;;;;;;-1.60;76.79;100631.03;210935;1291;142198;-62
2023/01/29 04:35:23;;;;;;;12.70;8.30;;;;;;;-1.58;76.99;100627.71;212363;1298;141042;-62
2023/01/29 04:40:36;;;;;;;11.20;7.70;;;;;;;-1.54;76.90;100625.77;210975;1290;140708;-63
2023/01/29 04:46:07;;;;;;;12.20;7.20;;;;;;;-1.56;77.04;100615.88;211805;1296;139385;-62
2023/01/29 04:51:30;;;;;;;15.60;8.40;;;;;;;-1.57;77.09;100614.27;211138;1297;141765;-63
2023/01/29 04:56:45;;;;;;;13.10;8.90;;;;;;;-1.60;76.88;100608.38;211550;1299;139941;-63
2023/01/29 05:01:49;;;;;;;16.50;7.60;;;;;;;-1.59;77.12;100602.91;210937;1290;141061;-63
2023/01/29 05:06:52;;;;;;;11.70;8.20;;;;;;;-1.58;77.19;100606.13;211027;1287;140282;-63
2023/01/29 05:11:54;;;;;;;18.60;10.70;;;;;;;-1.55;77.43;100606.58;210044;1291;160227;-63
2023/01/29 05:16:59;;;;;;;13.40;8.30;;;;;;;-1.57;77.38;100611.64;210423;1291;140521;-62
2023/01/29 05:22:05;;;;;;;11.70;8.30;;;;;;;-1.58;77.59;100618.54;210819;1297;141146;-63
2023/01/29 05:32:51;;;;;;;10.80;7.60;;;;;;;-1.54;77.46;100599.15;211076;1290;139682;-63
2023/01/29 05:37:56;;;;;;;13.70;9.50;;;;;;;-1.55;77.47;100595.73;210267;1297;140451;-62
2023/01/29 05:42:58;;;;;;;15.60;9.10;;;;;;;-1.56;77.52;100598.63;211264;1298;141040;-62
2023/01/29 05:48:01;;;;;;;13.90;7.80;;;;;;;-1.58;77.41;100594.60;211527;1290;141040;-63
2023/01/29 05:53:05;;;;;;;12.90;8.00;;;;;;;-1.56;77.61;100589.70;210472;1290;140067;-61
2023/01/29 05:58:08;;;;;;;6.60;4.90;;;;;;;-1.52;77.57;100588.80;211848;1299;139630;-63
2023/01/29 06:03:11;;;;;;;13.00;7.80;;;;;;;-1.56;77.38;100582.91;212469;1299;140169;-64
2023/01/29 06:08:14;;;;;;;12.40;8.10;;;;;;;-1.57;77.37;100577.27;212952;1299;140903;-63
2023/01/29 06:13:18;;;;;;;10.50;7.60;;;;;;;-1.56;77.35;100569.67;212920;1298;140538;-63
2023/01/29 06:18:20;;;;;;;14.80;9.80;;;;;;;-1.59;77.04;100556.86;213064;1283;140170;-63
2023/01/29 06:23:23;;;;;;;12.00;9.60;;;;;;;-1.65;77.17;100563.38;212899;1293;141127;-62
2023/01/29 06:28:26;;;;;;;13.80;7.20;;;;;;;-1.71;77.05;100573.96;211464;1297;140321;-61
2023/01/29 06:33:29;;;;;;;14.50;9.40;;;;;;;-1.74;77.10;100579.98;211436;1297;139791;-63
2023/01/29 06:38:33;;;;;;;14.90;7.90;;;;;;;-1.79;77.11;100581.25;210315;1297;141630;-63
2023/01/29 06:43:38;;;;;;;10.60;6.50;;;;;;;-1.81;77.31;100592.58;211815;1297;139749;-65
2023/01/29 06:48:41;;;;;;;16.80;8.20;;;;;;;-1.82;77.34;100594.92;210748;1291;142768;-65
2023/01/29 06:53:44;;;;;;;17.00;7.90;;;;;;;-1.75;77.75;100591.23;211772;1290;140363;-66
2023/01/29 06:58:49;;;;;;;8.80;6.70;;;;;;;-1.68;77.68;100593.44;210683;1290;139488;-66
2023/01/29 07:03:52;;;;;;;11.00;7.40;;;;;;;-1.65;77.76;100593.80;210649;1290;140517;-64
2023/01/29 07:08:55;;;;;;;6.10;4.00;;;;;;;-1.59;77.69;100594.90;210507;1296;140223;-66
2023/01/29 07:14:00;;;;;;;11.50;6.80;;;;;;;-1.54;77.62;100610.42;210531;1293;140710;-62
2023/01/29 07:19:03;;;;;;;9.40;6.70;;;;;;;-1.53;77.65;100618.41;211340;1299;139523;-65
2023/01/29 07:24:06;;;;;;;9.80;6.40;;;;;;;-1.53;77.69;100621.30;210687;1290;138948;-64
2023/01/29 07:29:10;;;;;;;12.70;8.00;;;;;;;-1.52;77.63;100615.48;211200;1290;141656;-65
2023/01/29 07:34:13;;;;;;;10.10;5.90;;;;;;;-1.44;77.80;100609.90;211483;1301;141544;-63
2023/01/29 07:39:17;;;;;;;10.50;6.50;;;;;;;-1.36;77.64;100598.55;211101;1292;139327;-63
2023/01/29 07:44:21;;;;;;;10.90;5.60;;;;;;;-1.31;77.76;100592.89;210780;1298;139669;-63
2023/01/29 07:49:24;;;;;;;9.80;6.70;;;;;;;-1.23;77.45;100593.37;210908;1297;139973;-67
2023/01/29 07:54:27;;;;;;;14.00;7.70;;;;;;;-1.14;77.26;100586.78;210148;1291;140390;-64
2023/01/29 07:59:30;;;;;;;9.90;6.80;;;;;;;-1.08;77.64;100587.34;210634;1292;139684;-65
2023/01/29 08:04:33;;;;;;;8.80;5.80;;;;;;;-1.02;77.49;100577.66;210159;1298;139428;-62
2023/01/29 08:09:37;;;;;;;10.90;7.20;;;;;;;-0.89;77.22;100571.66;211529;1287;141490;-62
2023/01/29 08:14:39;;;;;;;8.00;4.40;;;;;;;-0.80;77.25;100575.86;212705;1291;141341;-68
2023/01/29 08:19:42;;;;;;;10.40;6.50;;;;;;;-0.71;76.84;100575.54;212703;1296;139992;-67
2023/01/29 08:24:44;;;;;;;9.60;6.60;;;;;;;-0.58;76.79;100564.36;212786;1294;140396;-68
2023/01/29 08:30:02;;;;;;;10.20;8.20;;;;;;;-0.35;76.87;100557.35;210313;1300;139260;-68
2023/01/29 08:35:05;;;;;;;8.50;5.90;;;;;;;-0.25;76.63;100556.67;211924;1293;140296;-67
2023/01/29 08:40:09;;;;;;;13.30;9.50;;;;;;;-0.12;76.26;100551.11;210829;1293;139618;-68
2023/01/29 08:45:13;;;;;;;10.00;6.60;;;;;;;0.02;76.19;100546.60;210916;1297;139311;-66
2023/01/29 08:50:16;;;;;;;21.80;8.70;;;;;;;0.07;76.19;100543.88;211273;1300;476213;-65
2023/01/29 08:55:20;;;;;;;8.80;6.00;;;;;;;0.11;76.40;100547.88;210739;1291;139133;-68
2023/01/29 09:00:24;;;;;;;14.40;8.50;;;;;;;0.12;76.17;100553.31;210251;1297;139892;-67
2023/01/29 09:05:27;;;;;;;13.60;10.50;;;;;;;0.10;75.98;100555.25;210117;1290;139772;-68
2023/01/29 09:10:30;;;;;;;16.40;8.80;;;;;;;0.03;76.12;100553.30;210003;1290;140588;-64
2023/01/29 09:15:32;;;;;;;8.30;6.60;;;;;;;0.03;75.88;100540.39;211780;1299;142145;-63
2023/01/29 09:20:36;;;;;;;9.20;7.40;;;;;;;0.08;76.12;100537.98;210365;1287;146364;-64
2023/01/29 09:25:42;;;;;;;11.60;7.90;;;;;;;0.27;76.17;100531.44;210836;1300;139760;-66
2023/01/29 09:30:45;;;;;;;11.20;7.50;;;;;;;0.44;76.31;100524.65;210189;1296;140229;-67
2023/01/29 09:35:48;;;;;;;11.70;7.50;;;;;;;0.48;76.30;100521.19;210557;1300;140910;-64
2023/01/29 09:41:06;;;;;;;11.90;6.50;;;;;;;0.49;76.38;100512.87;209804;1297;140242;-65
2023/01/29 09:46:39;;;;;;;11.60;8.90;;;;;;;0.51;76.15;100511.91;211789;1298;139173;-65
2023/01/29 09:52:11;;;;;;;12.10;8.90;;;;;;;0.48;76.34;100504.23;211768;1285;139840;-64
2023/01/29 09:57:51;;;;;;;9.60;6.70;;;;;;;0.42;76.55;100499.16;210736;1291;140356;-63
2023/01/29 10:03:16;;;;;;;12.60;7.60;;;;;;;0.45;77.05;100490.14;212294;1284;139321;-69
2023/01/29 10:08:50;;;;;;;12.20;8.70;;;;;;;0.47;76.73;100485.20;212833;1296;140717;-64
2023/01/29 10:14:14;;;;;;;8.70;5.00;;;;;;;0.47;77.09;100480.65;211890;1298;140293;-66
2023/01/29 10:19:48;;;;;;;11.70;7.50;;;;;;;0.37;76.72;100486.20;211603;1284;140380;-66
2023/01/29 10:25:05;;;;;;;9.30;6.60;;;;;;;0.29;76.84;100482.14;210959;1300;139798;-69
2023/01/29 10:30:26;;;;;;;10.30;7.50;;;;;;;0.25;77.06;100476.56;212021;1299;140935;-68
2023/01/29 10:35:35;;;;;;;13.80;8.60;;;;;;;0.24;77.05;100472.95;210230;1291;140052;-67
2023/01/29 10:40:46;;;;;;;14.60;8.70;;;;;;;0.24;77.49;100466.10;210958;1298;140651;-65
2023/01/29 10:46:35;;;;;;;13.90;6.80;;;;;;;0.31;77.57;100466.34;210359;1306;139639;-68
2023/01/29 10:52:13;;;;;;;13.50;8.70;;;;;;;0.30;77.53;100456.45;211364;1291;140601;-66
2023/01/29 10:57:55;;;;;;;13.80;9.70;;;;;;;0.31;78.16;100454.02;210368;1298;139828;-65
2023/01/29 11:03:15;;;;;;;14.10;9.00;;;;;;;0.40;78.25;100452.21;210094;1298;139504;-66
2023/01/29 11:08:37;;;;;;;14.70;10.50;;;;;;;0.39;78.42;100449.62;210444;1305;140216;-65
2023/01/29 11:14:05;;;;;;;10.90;7.90;;;;;;;0.32;78.44;100443.34;211877;1298;140567;-68
2023/01/29 11:19:09;;;;;;;;;;;;;;;0.25;78.72;100440.52;212818;1295;141734;-64
2023/01/29 11:24:17;;;;;;;14.00;8.70;;;;;;;0.23;79.12;100434.95;213038;1301;128636;-65
2023/01/29 11:29:30;;;;;;;12.90;7.90;;;;;;;0.20;79.03;100413.98;211191;1298;141661;-65
2023/01/29 11:34:34;;;;;;;8.90;6.80;;;;;;;0.18;79.25;100411.80;210349;1298;140668;-64
2023/01/29 11:39:46;;;;;;;14.60;9.50;;;;;;;0.18;79.42;100401.74;211830;1297;140730;-65
2023/01/29 11:44:50;;;;;;;22.40;11.30;;;;;;;0.10;79.57;100387.13;211624;1281;140436;-65
2023/01/29 11:49:55;;;;;;;17.80;10.60;;;;;;;0.11;79.65;100383.09;210661;1290;139709;-64
2023/01/29 11:55:02;;;;;;;21.90;10.80;;;;;;;0.13;79.97;100372.03;212806;1284;140501;-66
2023/01/29 12:00:21;;;;;;;26.10;12.00;;;;;;;0.17;80.20;100366.83;212892;1299;140852;-66
2023/01/29 12:05:25;;;;;;;16.10;10.90;;;;;;;0.22;79.89;100353.73;212978;1299;141818;-66
2023/01/29 12:10:35;;;;;;;20.30;10.50;;;;;;;0.27;79.94;100342.80;211931;1292;140622;-67
2023/01/29 12:15:41;;;;;;;21.00;11.60;;;;;;;0.28;79.67;100328.54;210745;1291;139940;-67
2023/01/29 12:20:50;;;;;;;12.80;9.40;;;;;;;0.30;80.23;100325.69;211015;1297;140004;-65
2023/01/29 12:26:18;;;;;;;13.00;8.70;;;;;;;0.33;80.46;100324.16;210250;1298;139736;-66
2023/01/29 12:31:40;;;;;;;16.20;11.30;;;;;;;0.30;80.21;100315.90;211836;1303;140770;-66
2023/01/29 12:37:09;;;;;;;16.80;11.30;;;;;;;0.29;80.36;100307.61;211458;1297;140198;-66
2023/01/29 12:42:21;;;;;;;18.10;11.50;;;;;;;0.30;80.37;100299.77;211394;1296;140685;-66
2023/01/29 12:48:07;;;;;;;18.30;11.70;;;;;;;0.27;80.01;100299.65;210934;1300;142586;-66
2023/01/29 12:53:31;;;;;;;45.60;23.50;;;;;;;0.21;80.53;100307.90;210256;1293;140173;-68
2023/01/29 12:58:37;;;;;;;32.50;16.80;;;;;;;0.14;80.92;100294.32;210585;1289;139661;-67
2023/01/29 13:03:57;;;;;;;38.00;19.30;;;;;;;0.13;80.97;100275.89;210423;1292;139933;-68
2023/01/29 13:09:06;;;;;;;34.90;16.60;;;;;;;0.07;81.25;100278.23;210833;1299;140126;-67
2023/01/29 13:14:21;;;;;;;51.30;22.60;;;;;;;0.03;81.16;100268.80;210471;1296;140576;-67
2023/01/29 13:19:31;;;;;;;26.60;14.80;;;;;;;-0.02;81.17;100269.15;210686;1298;140866;-67
2023/01/29 13:24:40;;;;;;;27.40;15.30;;;;;;;0.00;81.75;100277.36;210844;1297;139821;-67
2023/01/29 13:29:51;;;;;;;26.60;16.50;;;;;;;-0.02;81.71;100270.52;211804;1296;141694;-68
2023/01/29 13:35:04;;;;;;;20.40;14.00;;;;;;;-0.03;81.51;100270.10;211922;1300;140883;-65
2023/01/29 13:40:21;;;;;;;18.70;11.20;;;;;;;0.04;81.61;100272.09;211014;1301;141329;-65
2023/01/29 13:45:41;;;;;;;19.90;12.70;;;;;;;0.02;81.55;100254.42;210467;1298;140445;-67
2023/01/29 13:50:44;;;;;;;;;;;;;;;-0.05;82.08;100274.88;212863;1302;140010;-66
2023/01/29 13:55:48;;;;;;;22.70;13.70;;;;;;;-0.04;82.46;100276.91;213346;1303;126063;-67
2023/01/29 14:00:51;;;;;;;22.30;14.90;;;;;;;-0.03;82.10;100273.48;211706;1300;140134;-67
2023/01/29 14:05:54;;;;;;;26.70;15.10;;;;;;;-0.03;82.49;100278.42;210737;1296;140791;-65
2023/01/29 14:11:13;;;;;;;23.60;14.70;;;;;;;-0.06;82.10;100280.37;212062;1297;140558;-68
2023/01/29 14:16:17;;;;;;;27.00;14.30;;;;;;;-0.08;82.57;100274.15;211730;1297;140869;-67
2023/01/29 14:21:37;;;;;;;23.60;12.90;;;;;;;-0.10;82.74;100267.55;210268;1293;144374;-65
2023/01/29 14:26:46;;;;;;;15.10;10.50;;;;;;;-0.10;82.74;100263.72;210707;1291;143310;-66
2023/01/29 14:31:57;;;;;;;29.50;15.00;;;;;;;-0.14;82.86;100254.33;210419;1305;140868;-65
2023/01/29 14:37:27;;;;;;;23.90;13.70;;;;;;;-0.15;83.28;100260.05;211689;1298;140333;-67
2023/01/29 14:42:43;;;;;;;25.80;14.70;;;;;;;-0.18;83.28;100240.77;210260;1297;140166;-66
2023/01/29 14:47:47;;;;;;;29.00;13.60;;;;;;;-0.20;83.10;100236.98;210852;1299;141463;-66
2023/01/29 14:52:52;;;;;;;27.00;15.50;;;;;;;-0.21;83.50;100238.05;210292;1291;140548;-67
2023/01/29 14:57:57;;;;;;;25.90;13.50;;;;;;;-0.19;83.64;100245.77;211307;1284;231444;-66
2023/01/29 15:03:03;;;;;;;25.60;14.80;;;;;;;-0.21;83.29;100243.79;210910;1298;141010;-66
2023/01/29 15:08:19;;;;;;;24.50;15.10;;;;;;;-0.17;83.68;100239.09;211218;1298;140260;-66
2023/01/29 15:13:50;;;;;;;25.00;15.00;;;;;;;-0.13;83.88;100247.19;210167;1291;140103;-67
2023/01/29 15:19:03;;;;;;;26.20;15.00;;;;;;;-0.16;83.54;100254.17;210828;1290;140378;-66
2023/01/29 15:24:12;;;;;;;19.80;10.90;;;;;;;-0.21;83.44;100246.34;211266;1300;140290;-66
2023/01/29 15:29:24;;;;;;;29.70;15.20;;;;;;;-0.27;83.86;100240.59;211324;1290;140596;-66
2023/01/29 15:34:27;;;;;;;29.10;14.70;;;;;;;-0.27;83.80;100237.13;212859;1299;139918;-67
2023/01/29 15:39:30;;;;;;;29.00;16.10;;;;;;;-0.24;83.92;100232.63;212832;1291;142330;-67
2023/01/29 15:44:34;;;;;;;31.40;14.10;;;;;;;-0.24;83.83;100233.81;212872;1299;140369;-67
2023/01/29 15:49:39;;;;;;;31.70;16.00;;;;;;;-0.21;83.78;100233.01;211328;1290;140148;-65
2023/01/29 15:54:45;;;;;;;24.60;13.00;;;;;;;-0.18;83.81;100221.21;213006;1297;140987;-66
2023/01/29 15:59:50;;;;;;;24.30;12.90;;;;;;;-0.10;84.23;100217.80;212415;1283;140408;-67
2023/01/29 16:04:55;;;;;;;26.00;15.90;;;;;;;-0.10;83.76;100212.55;211023;1292;140048;-66
2023/01/29 16:09:59;;;;;;;23.60;14.60;;;;;;;-0.12;83.90;100215.52;211260;1291;139979;-67
2023/01/29 16:15:05;;;;;;;23.80;13.40;;;;;;;-0.17;84.03;100215.16;211116;1291;140574;-66
2023/01/29 16:20:29;;;;;;;29.60;14.90;;;;;;;-0.27;83.95;100223.11;210586;1300;140244;-64
2023/01/29 16:25:37;;;;;;;31.10;16.60;;;;;;;-0.27;84.04;100222.41;211044;1291;212089;-66
2023/01/29 16:30:41;;;;;;;23.90;13.70;;;;;;;-0.21;84.35;100215.36;210477;1296;140274;-67
2023/01/29 16:35:51;;;;;;;29.90;16.90;;;;;;;-0.14;84.46;100199.66;211482;1300;140264;-67
2023/01/29 16:41:25;;;;;;;27.90;16.90;;;;;;;-0.10;84.40;100197.63;210725;1291;140157;-65
2023/01/29 16:46:33;;;;;;;32.30;16.20;;;;;;;-0.14;84.05;100188.48;210762;1291;139972;-64
2023/01/29 16:51:39;;;;;;;27.00;13.70;;;;;;;-0.15;84.69;100188.75;210370;1294;140731;-65
2023/01/29 16:56:47;;;;;;;42.00;19.20;;;;;;;-0.17;84.33;100190.55;210327;1290;141015;-64
2023/01/29 17:01:54;;;;;;;33.80;19.20;;;;;;;-0.21;84.66;100183.76;210708;1290;141177;-65
2023/01/29 17:07:01;;;;;;;27.90;15.50;;;;;;;-0.24;84.75;100171.52;210206;1299;142539;-66
2023/01/29 17:12:09;;;;;;;26.60;16.20;;;;;;;-0.24;84.75;100175.15;210486;1290;141316;-65
2023/01/29 17:21:41;;;;;;;29.20;16.10;;;;;;;-0.15;84.90;100174.23;208886;1332;636200;-68
2023/01/29 17:26:47;;;;;;;29.60;17.70;;;;;;;-0.13;84.91;100167.02;209228;1304;138639;-66
2023/01/29 17:31:54;;;;;;;;;;;;;;;-0.12;84.46;100161.05;209969;1300;541288;-66
2023/01/29 17:37:00;;;;;;;23.60;15.80;;;;;;;-0.17;84.74;100151.92;212562;1305;126985;-66
2023/01/29 17:42:12;;;;;;;27.90;15.30;;;;;;;-0.16;84.67;100140.30;211745;1310;140562;-68
2023/01/29 17:47:17;;;;;;;29.10;15.90;;;;;;;-0.13;84.72;100122.01;212175;1304;139795;-66
2023/01/29 17:52:25;;;;;;;32.00;15.20;;;;;;;-0.10;84.53;100117.70;209847;1301;140192;-66
2023/01/29 17:57:31;;;;;;;19.20;12.40;;;;;;;-0.08;84.56;100113.58;211484;1291;140259;-66
2023/01/29 18:02:37;;;;;;;46.70;21.90;;;;;;;-0.11;84.76;100099.94;210349;1298;139470;-66
2023/01/29 18:07:45;;;;;;;50.40;20.40;;;;;;;-0.16;84.83;100088.41;212432;1302;139226;-67
2023/01/29 18:12:51;;;;;;;28.00;16.20;;;;;;;-0.19;84.84;100088.40;210647;1297;139460;-67
2023/01/29 18:17:57;;;;;;;26.10;14.70;;;;;;;-0.19;84.90;100086.11;209952;1301;140445;-68
2023/01/29 18:23:05;;;;;;;22.80;15.20;;;;;;;-0.17;85.11;100080.15;210892;1295;140954;-67
2023/01/29 18:28:17;;;;;;;22.10;12.60;;;;;;;-0.12;85.43;100076.32;210045;1294;139871;-67
2023/01/29 18:33:24;;;;;;;24.70;15.10;;;;;;;-0.12;85.03;100069.61;210622;1302;139299;-65
2023/01/29 18:38:34;;;;;;;24.40;15.10;;;;;;;-0.15;85.37;100056.30;210276;1291;139243;-66
2023/01/29 18:43:44;;;;;;;27.00;15.50;;;;;;;-0.19;85.35;100053.55;212509;1307;139126;-68
2023/01/29 18:48:52;;;;;;;28.60;14.80;;;;;;;-0.20;85.59;100054.34;210156;1291;139497;-68
2023/01/29 18:53:58;;;;;;;27.20;13.90;;;;;;;-0.20;85.40;100055.26;210522;1294;139724;-69
2023/01/29 18:59:06;;;;;;;17.80;8.90;;;;;;;-0.14;85.64;100055.55;210233;1291;141893;-69
2023/01/29 19:04:12;;;;;;;23.60;14.30;;;;;;;-0.12;85.82;100052.31;209521;1307;140071;-69
2023/01/29 19:09:19;;;;;;;23.10;13.30;;;;;;;-0.14;85.70;100048.20;210406;1300;139804;-68
2023/01/29 19:14:25;;;;;;;21.10;12.30;;;;;;;-0.16;85.86;100032.33;209704;1301;140329;-70
2023/01/29 19:19:33;;;;;;;28.90;15.10;;;;;;;-0.10;86.04;100034.34;210477;1293;141443;-69
2023/01/29 19:24:40;;;;;;;27.00;13.80;;;;;;;-0.07;85.94;100029.99;209938;1301;140411;-69
2023/01/29 19:29:45;;;;;;;25.20;13.30;;;;;;;-0.04;85.75;100026.05;211055;1296;208690;-69
2023/01/29 19:34:51;;;;;;;25.90;14.80;;;;;;;-0.05;85.66;100019.82;212743;1291;140440;-69
2023/01/29 19:39:56;;;;;;;34.70;17.50;;;;;;;-0.03;85.80;100013.47;213677;1285;139927;-70
2023/01/29 19:45:01;;;;;;;29.70;16.50;;;;;;;0.04;85.57;100009.77;213543;1295;140335;-70
2023/01/29 19:50:10;;;;;;;27.60;15.90;;;;;;;0.03;85.97;100003.58;213274;1290;139220;-70
2023/01/29 19:55:15;;;;;;;24.20;14.30;;;;;;;0.05;85.93;99994.89;212277;1292;138637;-70
2023/01/29 20:00:22;;;;;;;23.60;13.40;;;;;;;0.07;85.93;99986.74;213079;1288;139597;-69
2023/01/29 20:05:26;;;;;;;25.40;15.20;;;;;;;0.11;85.89;99981.31;210441;1286;139155;-68
2023/01/29 20:10:31;;;;;;;32.10;22.00;;;;;;;0.11;85.72;99977.21;211124;1294;139700;-68
2023/01/29 20:15:37;;;;;;;27.10;15.60;;;;;;;0.11;85.76;99971.68;210928;1294;139801;-70
2023/01/29 20:20:48;;;;;;;23.40;13.80;;;;;;;0.10;85.89;99964.44;211220;1277;141223;-70
2023/01/29 20:25:59;;;;;;;23.30;14.90;;;;;;;0.11;86.67;99961.13;210541;1294;139401;-69
2023/01/29 20:31:07;;;;;;;24.80;13.70;;;;;;;0.12;86.40;99953.23;210525;1297;140521;-69
2023/01/29 20:36:13;;;;;;;21.30;13.90;;;;;;;0.12;86.26;99950.05;210672;1294;139629;-68
2023/01/29 20:41:18;;;;;;;27.40;14.20;;;;;;;0.14;86.63;99945.67;210429;1288;140224;-68
2023/01/29 20:46:22;;;;;;;23.10;15.60;;;;;;;0.16;86.35;99931.13;210252;1286;139338;-68
2023/01/29 20:51:28;;;;;;;25.40;12.80;;;;;;;0.18;86.35;99931.78;211641;1285;139690;-67
2023/01/29 20:56:35;;;;;;;12.30;7.30;;;;;;;0.20;86.40;99925.83;210660;1289;139638;-68
2023/01/29 21:01:46;;;;;;;27.40;16.40;;;;;;;0.15;86.20;99923.35;211736;1291;139147;-68
2023/01/29 21:06:52;;;;;;;19.40;12.80;;;;;;;0.12;86.33;99916.34;212347;1286;139617;-67
2023/01/29 21:11:57;;;;;;;30.20;15.20;;;;;;;0.15;86.55;99910.38;210500;1293;139576;-69
2023/01/29 21:17:04;;;;;;;21.50;13.60;;;;;;;0.19;86.59;99899.34;212281;1289;139367;-68
2023/01/29 21:22:09;;;;;;;18.80;9.80;;;;;;;0.22;86.43;99891.00;210854;1285;140117;-70
2023/01/29 21:27:14;;;;;;;21.30;12.60;;;;;;;0.25;86.42;99891.35;213446;1294;139338;-65
2023/01/29 21:32:19;;;;;;;20.90;14.30;;;;;;;0.23;86.32;99888.05;213765;1286;139115;-66
2023/01/29 21:37:25;;;;;;;21.30;13.20;;;;;;;0.23;86.29;99872.28;213653;1290;139311;-65
2023/01/29 21:47:53;;;;;;;21.50;11.30;;;;;;;0.25;86.40;99863.33;213202;1293;152641;-65
2023/01/29 21:52:57;;;;;;;20.50;12.50;;;;;;;0.25;86.42;99867.44;210978;1294;139129;-68
2023/01/29 21:58:03;;;;;;;49.20;19.50;;;;;;;0.25;86.45;99861.44;210367;1286;140452;-70
2023/01/29 22:03:07;;;;;;;62.50;28.50;;;;;;;0.23;86.43;99853.60;211109;1278;140078;-67
2023/01/29 22:08:11;;;;;;;79.10;34.20;;;;;;;0.20;86.37;99843.80;212322;1295;141636;-69
2023/01/29 22:13:15;;;;;;;38.00;20.40;;;;;;;0.18;86.57;99834.89;211038;1285;142633;-68
2023/01/29 22:18:21;;;;;;;17.50;12.20;;;;;;;0.19;86.41;99827.88;211405;1284;139957;-68
2023/01/29 22:23:28;;;;;;;17.80;10.40;;;;;;;0.17;86.70;99821.20;211527;1286;139725;-67
2023/01/29 22:28:34;;;;;;;20.20;10.00;;;;;;;0.17;86.65;99814.61;210559;1284;140060;-68
2023/01/29 22:33:39;;;;;;;21.50;13.00;;;;;;;0.16;86.79;99798.45;211287;1292;140070;-67
2023/01/29 22:38:43;;;;;;;17.70;10.30;;;;;;;0.19;86.57;99783.67;211064;1286;139797;-63
2023/01/29 22:43:50;;;;;;;14.70;9.70;;;;;;;0.16;86.57;99769.23;210960;1294;140975;-66
2023/01/29 22:48:56;;;;;;;16.20;9.20;;;;;;;0.13;86.80;99761.09;211444;1293;139043;-65
2023/01/29 22:54:00;;;;;;;19.30;12.30;;;;;;;0.07;86.85;99744.95;211409;1294;138645;-68
2023/01/29 22:59:05;;;;;;;18.00;9.90;;;;;;;0.07;86.91;99726.45;211665;1294;140669;-67
2023/01/29 23:04:10;;;;;;;16.50;10.20;;;;;;;0.05;87.18;99720.71;211888;1294;140195;-66
2023/01/29 23:09:14;;;;;;;14.80;9.10;;;;;;;0.02;86.97;99715.98;211790;1295;140763;-67
2023/01/29 23:14:20;;;;;;;14.90;8.80;;;;;;;0.01;86.85;99709.79;210612;1293;139032;-65
2023/01/29 23:19:28;;;;;;;14.00;9.90;;;;;;;-0.01;87.33;99700.09;213531;1287;140661;-70
2023/01/29 23:24:33;;;;;;;8.90;6.20;;;;;;;-0.02;87.24;99696.29;213634;1295;139522;-67
2023/01/29 23:29:37;;;;;;;26.30;18.10;;;;;;;-0.02;87.02;99692.34;213492;1294;139999;-67
2023/01/29 23:34:41;;;;;;;29.80;16.80;;;;;;;-0.05;86.94;99685.77;212318;1284;139604;-69
2023/01/29 23:39:46;;;;;;;18.20;12.60;;;;;;;-0.05;87.12;99671.79;212950;1295;140977;-66
2023/01/29 23:44:50;;;;;;;31.30;17.00;;;;;;;-0.05;86.81;99652.27;212477;1288;141412;-65